logo
Rechercher aéroport 
image banner adimage banner adimage banner ad
image banner ad

YPVD - Plevna Downs

Situé à Eromanga, Australia

ICAO - YPVD, IATA -

Données fournies par Airmate  

Information générale

Coordonnées: S26°39'0" E142°35'23"
Élévation : 456 feet MSL.
Variation magnétique : 8° East
Voir autres Aéroports à Queensland

Données opérationnelles

Special qualification required
Heure actuelle UTC:
Heure actuelle locale:
Météo à : - ( 0 km )
METAR: YAMB 251606Z AUTO 07004KT 0450 -RA BKN011 08/08 Q1022 RF00.0/000.0
Voir NOTAMs / SUP AIP / TFR affectant cet aéroport [VIEW]
Fréquences de communication: [VIEW]

Pistes:

Identifiant RWYQFULongueur (ft)Largeur (ft)SurfaceLDA (ft)
1131160C
2931160C
22224°421593DIRT
0444°421593DIRT

Coordonnées de l'aéroport

Adresse: Eromanga Australia

Vue satellite de YPVD